createdAt,value
2018-10-05T00:01:15.572Z,11.10
2018-10-05T00:03:43.187Z,11.10
2018-10-05T00:06:10.764Z,11.20
2018-10-05T00:08:38.344Z,11.10
2018-10-05T00:11:06.212Z,11.10
2018-10-05T00:13:33.780Z,11.10
2018-10-05T00:16:01.318Z,11.10
2018-10-05T00:18:28.891Z,11.10
2018-10-05T00:20:56.463Z,11.10
2018-10-05T00:23:24.087Z,11.10
2018-10-05T00:25:51.674Z,11.10
2018-10-05T00:28:19.263Z,11.20
2018-10-05T00:30:46.805Z,11.10
2018-10-05T00:33:14.408Z,11.10
2018-10-05T00:35:41.986Z,11.10
2018-10-05T00:38:09.568Z,11.20
2018-10-05T00:40:37.152Z,11.10
2018-10-05T00:43:04.772Z,11.00
2018-10-05T00:45:32.370Z,10.80
2018-10-05T00:47:59.942Z,10.70
2018-10-05T00:50:27.523Z,10.50
2018-10-05T00:52:55.288Z,10.40
2018-10-05T00:55:22.847Z,10.30
2018-10-05T00:57:50.485Z,10.30
2018-10-05T01:03:09.101Z,10.20
2018-10-05T01:05:36.837Z,10.10
2018-10-05T01:08:04.385Z,9.90
2018-10-05T01:10:32.002Z,9.80
2018-10-05T01:12:59.579Z,9.60
2018-10-05T01:15:27.154Z,9.60
2018-10-05T01:17:54.680Z,9.60
2018-10-05T01:20:22.237Z,9.60
2018-10-05T01:22:49.934Z,9.70
2018-10-05T01:25:17.475Z,9.70
2018-10-05T01:27:45.093Z,9.60
2018-10-05T01:30:13.237Z,9.40
2018-10-05T01:32:42.620Z,9.30
2018-10-05T01:35:10.275Z,9.20
2018-10-05T01:37:38.255Z,9.30
2018-10-05T01:40:05.821Z,9.40
2018-10-05T01:42:33.464Z,9.20
2018-10-05T01:45:01.308Z,9.00
2018-10-05T01:47:28.876Z,8.90
2018-10-05T01:49:56.432Z,8.80
2018-10-05T01:52:23.993Z,9.00
2018-10-05T01:54:51.549Z,9.10
2018-10-05T01:57:19.111Z,9.20
2018-10-05T01:59:46.664Z,9.40
2018-10-05T02:02:14.223Z,9.40
2018-10-05T02:04:41.779Z,9.30
2018-10-05T02:07:09.371Z,9.30
2018-10-05T02:09:36.943Z,9.20
2018-10-05T02:12:04.711Z,8.90
2018-10-05T02:14:32.278Z,8.90
2018-10-05T02:16:59.954Z,9.10
2018-10-05T02:19:27.519Z,9.20
2018-10-05T02:21:55.321Z,9.40
2018-10-05T02:24:22.844Z,9.50
2018-10-05T02:26:50.423Z,9.50
2018-10-05T02:29:17.988Z,9.50
2018-10-05T02:31:45.561Z,9.40
2018-10-05T02:34:13.415Z,9.10
2018-10-05T02:36:41.066Z,9.00
2018-10-05T02:39:09.670Z,9.00
2018-10-05T02:41:37.264Z,9.20
2018-10-05T02:44:05.073Z,9.30
2018-10-05T02:46:32.661Z,9.40
2018-10-05T02:49:00.238Z,9.40
2018-10-05T02:51:27.755Z,9.40
2018-10-05T02:53:55.387Z,9.30
2018-10-05T02:56:22.929Z,9.30
2018-10-05T02:58:50.508Z,9.30
2018-10-05T03:01:23.813Z,9.20
2018-10-05T03:03:51.332Z,9.20
2018-10-05T03:06:19.012Z,9.10
2018-10-05T03:08:46.583Z,9.20
2018-10-05T03:11:14.147Z,9.10
2018-10-05T03:13:41.699Z,9.20
2018-10-05T03:16:09.278Z,9.10
2018-10-05T03:18:36.871Z,9.10
2018-10-05T03:21:04.426Z,9.20
2018-10-05T03:23:32.012Z,9.20
2018-10-05T03:25:59.803Z,9.20
2018-10-05T03:28:27.387Z,9.30
2018-10-05T03:33:47.572Z,9.30
2018-10-05T03:36:15.575Z,9.30
2018-10-05T03:38:43.159Z,9.20
2018-10-05T03:41:11.036Z,9.10
2018-10-05T03:43:38.582Z,9.10
2018-10-05T03:46:06.442Z,9.10
2018-10-05T03:48:34.141Z,9.20
2018-10-05T03:51:01.913Z,9.30
2018-10-05T03:53:29.861Z,9.30
2018-10-05T03:55:57.769Z,9.30
2018-10-05T03:58:25.565Z,9.20
2018-10-05T04:00:53.362Z,9.20
2018-10-05T04:03:21.089Z,9.10
2018-10-05T04:05:48.879Z,8.80
2018-10-05T04:08:16.451Z,8.50
2018-10-05T04:10:44.157Z,8.40
2018-10-05T04:13:11.928Z,8.40
2018-10-05T04:15:39.805Z,8.30
2018-10-05T04:18:07.715Z,8.00
2018-10-05T04:20:35.891Z,7.90
2018-10-05T04:25:38.073Z,7.80
2018-10-05T04:28:06.129Z,7.70
2018-10-05T04:30:34.327Z,7.70
2018-10-05T04:33:02.090Z,8.00
2018-10-05T04:35:30.244Z,8.30
2018-10-05T04:37:58.209Z,8.40
2018-10-05T04:40:25.764Z,8.50
2018-10-05T04:42:53.381Z,8.60
2018-10-05T04:45:21.347Z,8.70
2018-10-05T04:47:48.949Z,8.80
2018-10-05T04:50:17.015Z,8.60
2018-10-05T04:52:51.271Z,8.60
2018-10-05T04:55:18.915Z,8.40
2018-10-05T04:57:46.549Z,8.00
2018-10-05T05:00:21.889Z,7.70
2018-10-05T05:02:49.458Z,7.70
2018-10-05T05:05:17.089Z,8.00
2018-10-05T05:07:44.722Z,8.20
2018-10-05T05:10:12.291Z,8.30
2018-10-05T05:12:39.839Z,8.40
2018-10-05T05:15:07.357Z,8.30
2018-10-05T05:17:34.947Z,8.40
2018-10-05T05:20:02.491Z,8.40
2018-10-05T05:22:30.133Z,8.40
2018-10-05T05:24:57.715Z,8.30
2018-10-05T05:27:25.306Z,8.20
2018-10-05T05:29:52.825Z,8.30
2018-10-05T05:32:20.556Z,8.40
2018-10-05T05:34:48.319Z,8.50
2018-10-05T05:37:15.946Z,8.50
2018-10-05T05:39:43.635Z,8.40
2018-10-05T05:42:11.215Z,8.40
2018-10-05T05:44:38.781Z,8.40
2018-10-05T05:47:06.617Z,8.40
2018-10-05T05:49:34.163Z,8.40
2018-10-05T05:52:01.790Z,8.30
2018-10-05T05:54:29.383Z,8.10
2018-10-05T05:57:09.295Z,7.80
2018-10-05T05:59:37.046Z,7.90
2018-10-05T06:04:51.076Z,7.80
2018-10-05T06:07:18.652Z,8.00
2018-10-05T06:09:46.228Z,8.30
2018-10-05T06:12:13.803Z,8.30
2018-10-05T06:14:44.322Z,8.40
2018-10-05T06:17:11.911Z,8.40
2018-10-05T06:19:39.508Z,8.50
2018-10-05T06:22:07.175Z,8.40
2018-10-05T06:24:34.649Z,8.50
2018-10-05T06:27:07.637Z,8.60
2018-10-05T06:29:35.241Z,8.70
2018-10-05T06:32:02.771Z,8.80
2018-10-05T06:34:30.309Z,9.00
2018-10-05T06:36:57.877Z,9.10
2018-10-05T06:39:25.499Z,8.90
2018-10-05T06:41:53.004Z,8.90
2018-10-05T06:44:20.836Z,8.90
2018-10-05T06:46:53.979Z,9.00
2018-10-05T06:49:21.880Z,9.10
2018-10-05T06:51:55.034Z,9.10
2018-10-05T06:54:22.593Z,9.10
2018-10-05T06:56:50.172Z,8.90
2018-10-05T06:59:17.752Z,8.90
2018-10-05T07:01:51.397Z,9.10
2018-10-05T07:04:18.910Z,9.40
2018-10-05T07:06:46.509Z,9.50
2018-10-05T07:09:14.116Z,9.40
2018-10-05T07:11:41.836Z,9.50
2018-10-05T07:14:09.498Z,9.70
2018-10-05T07:16:37.263Z,9.90
2018-10-05T07:19:04.913Z,10.00
2018-10-05T07:21:32.796Z,10.20
2018-10-05T07:24:00.569Z,10.50
2018-10-05T07:26:28.286Z,10.70
2018-10-05T07:28:55.940Z,10.90
2018-10-05T07:31:23.701Z,11.00
2018-10-05T07:33:51.505Z,11.10
2018-10-05T07:36:19.173Z,11.40
2018-10-05T07:38:46.831Z,11.40
2018-10-05T07:41:20.770Z,11.50
2018-10-05T07:43:48.356Z,11.60
2018-10-05T07:46:16.054Z,11.70
2018-10-05T07:48:43.680Z,11.90
2018-10-05T07:51:11.273Z,12.00
2018-10-05T07:53:38.892Z,12.40
2018-10-05T07:56:06.971Z,12.70
2018-10-05T07:58:34.566Z,12.80
2018-10-05T08:01:02.107Z,12.90
2018-10-05T08:03:29.713Z,13.20
2018-10-05T08:05:57.343Z,13.60
2018-10-05T08:08:24.939Z,14.00
2018-10-05T08:10:52.525Z,14.10
2018-10-05T08:13:20.193Z,14.40
2018-10-05T08:15:47.935Z,14.40
2018-10-05T08:18:15.501Z,14.40
2018-10-05T08:20:43.205Z,14.50
2018-10-05T08:23:10.891Z,14.40
2018-10-05T08:25:38.579Z,15.10
2018-10-05T08:28:06.381Z,15.40
2018-10-05T08:30:34.252Z,15.70
2018-10-05T08:33:01.971Z,16.10
2018-10-05T08:35:29.594Z,16.10
2018-10-05T08:37:57.353Z,15.90
2018-10-05T08:40:24.934Z,16.20
2018-10-05T08:42:52.621Z,16.60
2018-10-05T08:45:20.275Z,17.00
2018-10-05T08:47:47.975Z,16.90
2018-10-05T08:50:15.719Z,17.00
2018-10-05T08:52:43.550Z,17.40
2018-10-05T08:55:11.395Z,17.70
2018-10-05T08:57:39.094Z,18.10
2018-10-05T09:00:07.065Z,18.40
2018-10-05T09:02:34.794Z,18.50
2018-10-05T09:05:02.438Z,18.30
2018-10-05T09:07:30.035Z,18.40
2018-10-05T09:09:57.756Z,18.50
2018-10-05T09:12:25.439Z,18.50
2018-10-05T09:14:53.159Z,18.80
2018-10-05T09:17:20.812Z,18.90
2018-10-05T09:19:54.621Z,18.70
2018-10-05T09:22:22.367Z,18.60
2018-10-05T09:24:50.229Z,18.70
2018-10-05T09:27:17.944Z,18.90
2018-10-05T09:29:45.582Z,18.40
2018-10-05T09:32:13.313Z,18.50
2018-10-05T09:34:40.981Z,18.70
2018-10-05T09:37:08.630Z,19.00
2018-10-05T09:39:36.729Z,19.10
2018-10-05T09:42:10.646Z,18.90
2018-10-05T09:44:38.424Z,19.30
2018-10-05T09:47:06.201Z,19.30
2018-10-05T09:49:33.822Z,19.40
2018-10-05T09:52:01.689Z,19.60
2018-10-05T09:54:29.231Z,19.70
2018-10-05T09:56:56.948Z,19.70
2018-10-05T09:59:24.884Z,19.70
2018-10-05T10:01:58.010Z,19.80
2018-10-05T10:04:32.112Z,19.90
2018-10-05T10:06:59.785Z,19.90
2018-10-05T10:09:27.311Z,19.90
2018-10-05T10:11:55.181Z,19.90
2018-10-05T10:14:23.188Z,20.20
2018-10-05T10:19:37.422Z,20.10
2018-10-05T10:22:05.204Z,19.80
2018-10-05T10:24:32.806Z,20.10
2018-10-05T10:27:06.839Z,20.30
2018-10-05T10:29:34.550Z,20.30
2018-10-05T10:32:02.039Z,20.40
2018-10-05T10:34:29.915Z,20.10
2018-10-05T10:37:03.295Z,20.30
2018-10-05T10:39:31.020Z,20.80
2018-10-05T10:41:58.615Z,21.00
2018-10-05T10:44:26.192Z,21.00
2018-10-05T10:46:53.948Z,20.80
2018-10-05T10:49:21.664Z,21.10
2018-10-05T10:51:49.568Z,20.90
2018-10-05T10:54:17.406Z,20.70
2018-10-05T10:56:45.146Z,21.10
2018-10-05T10:59:12.968Z,21.30
2018-10-05T11:01:40.515Z,21.50
2018-10-05T11:04:08.114Z,21.60
2018-10-05T11:06:36.160Z,21.70
2018-10-05T11:09:04.631Z,21.50
2018-10-05T11:11:32.288Z,21.70
2018-10-05T11:14:00.265Z,21.40
2018-10-05T11:16:27.916Z,21.10
2018-10-05T11:18:55.601Z,20.90
2018-10-05T11:21:23.316Z,21.30
2018-10-05T11:23:50.977Z,21.00
2018-10-05T11:26:18.897Z,21.60
2018-10-05T11:28:46.448Z,21.90
2018-10-05T11:31:14.006Z,22.10
2018-10-05T11:33:41.828Z,22.20
2018-10-05T11:36:09.364Z,22.10
2018-10-05T11:38:37.153Z,21.90
2018-10-05T11:41:05.363Z,22.10
2018-10-05T11:43:33.090Z,22.30
2018-10-05T11:46:01.699Z,21.40
2018-10-05T11:48:29.423Z,22.10
2018-10-05T11:50:57.090Z,22.00
2018-10-05T11:53:24.733Z,22.10
2018-10-05T11:55:52.423Z,22.50
2018-10-05T11:58:19.993Z,22.70
2018-10-05T12:00:54.306Z,22.90
2018-10-05T12:03:21.866Z,23.10
2018-10-05T12:05:49.373Z,23.40
2018-10-05T12:08:16.952Z,23.20
2018-10-05T12:10:44.685Z,22.90
2018-10-05T12:13:12.200Z,23.00
2018-10-05T12:15:39.759Z,22.10
2018-10-05T12:18:07.421Z,21.30
2018-10-05T12:20:34.960Z,21.80
2018-10-05T12:23:02.531Z,22.00
2018-10-05T12:25:30.309Z,21.70
2018-10-05T12:27:57.896Z,21.70
2018-10-05T12:30:25.448Z,21.80
2018-10-05T12:32:52.938Z,22.20
2018-10-05T12:35:20.536Z,22.50
2018-10-05T12:37:48.033Z,22.80
2018-10-05T12:40:21.308Z,22.80
2018-10-05T12:42:48.983Z,22.80
2018-10-05T12:47:50.520Z,23.00
2018-10-05T12:50:18.136Z,22.90
2018-10-05T12:52:45.691Z,22.70
2018-10-05T12:55:13.230Z,22.90
2018-10-05T12:57:40.736Z,22.60
2018-10-05T13:00:08.301Z,22.10
2018-10-05T13:02:35.781Z,22.20
2018-10-05T13:05:03.813Z,22.30
2018-10-05T13:07:31.228Z,22.60
2018-10-05T13:09:58.771Z,22.60
2018-10-05T13:12:26.340Z,22.80
2018-10-05T13:14:53.841Z,22.90
2018-10-05T13:17:21.420Z,22.80
2018-10-05T13:19:48.947Z,22.30
2018-10-05T13:22:16.481Z,22.50
2018-10-05T13:24:44.177Z,22.60
2018-10-05T13:27:11.595Z,22.70
2018-10-05T13:29:39.108Z,22.80
2018-10-05T13:32:06.612Z,22.60
2018-10-05T13:34:34.141Z,22.70
2018-10-05T13:37:01.690Z,22.80
2018-10-05T13:39:29.232Z,23.20
2018-10-05T13:41:56.827Z,23.10
2018-10-05T13:44:24.319Z,23.00
2018-10-05T13:46:51.963Z,23.00
2018-10-05T13:49:20.498Z,23.10
2018-10-05T13:51:48.106Z,23.00
2018-10-05T13:54:15.639Z,22.90
2018-10-05T13:56:44.130Z,22.80
2018-10-05T13:59:11.705Z,22.70
2018-10-05T14:01:39.253Z,22.80
2018-10-05T14:04:06.980Z,22.70
2018-10-05T14:06:34.550Z,22.90
2018-10-05T14:09:02.327Z,22.80
2018-10-05T14:11:29.885Z,22.80
2018-10-05T14:13:57.466Z,22.70
2018-10-05T14:16:25.159Z,22.80
2018-10-05T14:18:52.721Z,22.90
2018-10-05T14:21:20.305Z,22.80
2018-10-05T14:23:53.512Z,22.80
2018-10-05T14:26:21.060Z,22.70
2018-10-05T14:28:54.968Z,22.50
2018-10-05T14:31:22.566Z,22.40
2018-10-05T14:33:50.197Z,22.30
2018-10-05T14:36:17.738Z,22.50
2018-10-05T14:38:45.321Z,22.40
2018-10-05T14:41:12.829Z,22.50
2018-10-05T14:43:40.402Z,22.50
2018-10-05T14:46:07.998Z,22.50
2018-10-05T14:48:35.568Z,22.60
2018-10-05T14:51:03.136Z,22.80
2018-10-05T14:53:30.725Z,22.70
2018-10-05T14:55:58.223Z,22.90
2018-10-05T14:58:25.806Z,23.00
2018-10-05T15:00:53.388Z,22.80
2018-10-05T15:03:20.929Z,22.90
2018-10-05T15:05:48.486Z,22.90
2018-10-05T15:08:16.099Z,22.90
2018-10-05T15:10:43.683Z,22.90
2018-10-05T15:15:45.648Z,22.80
2018-10-05T15:18:13.239Z,22.90
2018-10-05T15:20:40.888Z,23.00
2018-10-05T15:23:08.446Z,23.10
2018-10-05T15:25:39.785Z,23.10
2018-10-05T15:28:07.367Z,23.10
2018-10-05T15:30:34.899Z,23.10
2018-10-05T15:33:02.442Z,23.10
2018-10-05T15:35:30.004Z,22.90
2018-10-05T15:37:57.582Z,22.80
2018-10-05T15:40:32.426Z,22.60
2018-10-05T15:43:00.219Z,22.80
2018-10-05T15:45:27.841Z,22.80
2018-10-05T15:47:55.507Z,22.80
2018-10-05T15:50:23.149Z,22.80
2018-10-05T15:52:50.725Z,22.70
2018-10-05T15:55:18.593Z,22.80
2018-10-05T15:57:46.453Z,22.70
2018-10-05T16:00:14.004Z,22.30
2018-10-05T16:02:41.639Z,22.30
2018-10-05T16:05:09.336Z,21.90
2018-10-05T16:07:37.077Z,21.40
2018-10-05T16:10:04.792Z,21.10
2018-10-05T16:12:32.608Z,20.80
2018-10-05T16:15:00.459Z,20.70
2018-10-05T16:17:28.052Z,20.80
2018-10-05T16:19:55.909Z,20.80
2018-10-05T16:22:23.894Z,20.80
2018-10-05T16:24:51.903Z,20.80
2018-10-05T16:27:19.831Z,20.90
2018-10-05T16:29:47.719Z,20.90
2018-10-05T16:32:15.267Z,21.00
2018-10-05T16:34:42.862Z,21.00
2018-10-05T16:37:15.996Z,20.90
2018-10-05T16:39:43.675Z,20.90
2018-10-05T16:42:11.349Z,20.90
2018-10-05T16:44:38.975Z,20.80
2018-10-05T16:47:06.748Z,20.80
2018-10-05T16:49:34.352Z,20.70
2018-10-05T16:52:02.490Z,20.70
2018-10-05T16:54:30.572Z,20.60
2018-10-05T16:56:58.562Z,20.60
2018-10-05T16:59:26.613Z,20.40
2018-10-05T17:01:54.173Z,20.20
2018-10-05T17:04:22.158Z,19.90
2018-10-05T17:06:49.866Z,19.80
2018-10-05T17:09:17.547Z,19.70
2018-10-05T17:11:45.944Z,19.50
2018-10-05T17:14:13.707Z,19.50
2018-10-05T17:16:41.477Z,19.40
2018-10-05T17:19:09.035Z,19.30
2018-10-05T17:21:36.597Z,19.30
2018-10-05T17:24:04.199Z,19.20
2018-10-05T17:26:31.804Z,19.10
2018-10-05T17:28:59.358Z,18.30
2018-10-05T17:31:26.929Z,18.40
2018-10-05T17:33:54.480Z,18.20
2018-10-05T17:36:22.116Z,18.00
2018-10-05T17:38:49.733Z,18.00
2018-10-05T17:41:17.558Z,18.00
2018-10-05T17:43:45.129Z,18.20
2018-10-05T17:46:13.278Z,18.30
2018-10-05T17:48:40.869Z,18.30
2018-10-05T17:51:08.436Z,17.80
2018-10-05T17:53:36.165Z,17.60
2018-10-05T17:56:03.772Z,17.80
2018-10-05T17:58:31.325Z,17.90
2018-10-05T18:00:58.914Z,17.90
2018-10-05T18:03:26.518Z,17.90
2018-10-05T18:05:54.063Z,17.50
2018-10-05T18:08:21.706Z,17.40
2018-10-05T18:10:49.338Z,17.30
2018-10-05T18:13:17.182Z,17.50
2018-10-05T18:15:44.829Z,17.40
2018-10-05T18:18:12.528Z,17.40
2018-10-05T18:20:40.160Z,17.50
2018-10-05T18:23:07.851Z,17.50
2018-10-05T18:25:35.460Z,17.50
2018-10-05T18:28:03.060Z,17.20
2018-10-05T18:30:37.044Z,17.00
2018-10-05T18:33:04.663Z,16.90
2018-10-05T18:35:32.242Z,16.60
2018-10-05T18:37:59.872Z,16.60
2018-10-05T18:40:27.550Z,16.70
2018-10-05T18:42:55.127Z,16.70
2018-10-05T18:45:22.704Z,16.70
2018-10-05T18:47:50.312Z,16.50
2018-10-05T18:50:17.894Z,15.70
2018-10-05T18:52:51.696Z,15.30
2018-10-05T18:55:19.396Z,15.60
2018-10-05T18:57:46.952Z,16.00
2018-10-05T19:00:14.641Z,16.00
2018-10-05T19:02:42.271Z,16.00
2018-10-05T19:05:09.918Z,16.00
2018-10-05T19:07:45.700Z,15.90
2018-10-05T19:10:13.272Z,15.70
2018-10-05T19:12:40.849Z,15.50
2018-10-05T19:15:08.459Z,15.50
2018-10-05T19:17:36.145Z,15.50
2018-10-05T19:20:03.811Z,15.30
2018-10-05T19:22:31.438Z,15.20
2018-10-05T19:41:37.780Z,15.00
2018-10-05T19:44:05.946Z,14.90
2018-10-05T19:46:33.691Z,14.80
2018-10-05T19:49:01.304Z,14.90
2018-10-05T19:51:29.306Z,15.00
2018-10-05T19:53:56.925Z,15.10
2018-10-05T19:56:31.217Z,15.10
2018-10-05T19:58:58.783Z,15.00
2018-10-05T20:01:26.353Z,14.40
2018-10-05T20:03:53.945Z,14.00
2018-10-05T20:06:22.269Z,13.90
2018-10-05T20:08:49.889Z,13.50
2018-10-05T20:11:18.361Z,13.20
2018-10-05T20:13:46.744Z,13.10
2018-10-05T21:02:26.134Z,12.30
2018-10-05T21:04:54.404Z,12.60
2018-10-05T21:07:22.675Z,12.50
2018-10-05T21:09:51.642Z,12.60
2018-10-05T21:12:19.887Z,12.70
2018-10-05T21:14:48.327Z,12.80
2018-10-05T21:17:16.634Z,12.80
2018-10-05T21:19:44.857Z,12.90
2018-10-05T21:22:13.093Z,12.90
2018-10-05T21:24:41.345Z,12.90
2018-10-05T21:27:09.602Z,12.70
2018-10-05T21:29:37.965Z,12.70
2018-10-05T21:32:06.304Z,13.10
2018-10-05T21:34:34.615Z,13.30
2018-10-05T21:37:02.876Z,13.40
2018-10-05T21:39:31.160Z,13.10
2018-10-05T21:41:59.443Z,13.10
2018-10-05T21:44:27.774Z,13.20
2018-10-05T21:46:56.016Z,13.20
2018-10-05T21:49:24.348Z,13.20
2018-10-05T21:51:52.632Z,13.10
2018-10-05T21:54:20.872Z,13.10
2018-10-05T21:56:49.203Z,13.20
2018-10-05T21:59:17.497Z,13.30
2018-10-05T22:01:45.750Z,13.30
2018-10-05T22:04:14.017Z,13.30
2018-10-05T22:06:42.380Z,13.20
2018-10-05T22:09:11.596Z,13.10
2018-10-05T22:11:40.195Z,13.00
2018-10-05T22:14:08.447Z,12.90
2018-10-05T22:16:36.729Z,12.90
2018-10-05T22:19:04.999Z,12.50
2018-10-05T22:21:43.682Z,12.40
2018-10-05T22:24:11.948Z,12.60
2018-10-05T22:26:40.242Z,12.70
2018-10-05T22:29:08.528Z,12.70
2018-10-05T22:31:36.822Z,12.90
2018-10-05T22:34:05.129Z,13.00
2018-10-05T22:36:33.376Z,13.00
2018-10-05T22:39:01.742Z,13.10
2018-10-05T22:41:30.003Z,12.70
2018-10-05T22:43:58.236Z,12.70
2018-10-05T22:46:26.432Z,12.70
2018-10-05T22:49:08.433Z,12.80
2018-10-05T22:51:36.680Z,12.80
2018-10-05T22:54:04.940Z,12.60
2018-10-05T22:56:33.269Z,12.40
2018-10-05T22:59:01.585Z,12.40
2018-10-05T23:01:29.826Z,12.40
2018-10-05T23:03:58.168Z,12.50
2018-10-05T23:06:26.523Z,12.50
2018-10-05T23:09:02.586Z,12.20
2018-10-05T23:11:30.902Z,11.70
2018-10-05T23:13:59.197Z,11.80
2018-10-05T23:16:27.451Z,12.00
2018-10-05T23:18:55.840Z,12.10
2018-10-05T23:21:24.126Z,12.30
2018-10-05T23:23:52.371Z,12.60
2018-10-05T23:26:20.675Z,12.80
2018-10-05T23:28:48.909Z,12.80
2018-10-05T23:31:17.181Z,12.80
2018-10-05T23:33:45.419Z,12.70
2018-10-05T23:36:13.687Z,12.50
2018-10-05T23:38:41.939Z,12.20
2018-10-05T23:41:10.187Z,12.30
2018-10-05T23:43:38.430Z,12.40
2018-10-05T23:46:07.182Z,12.20
2018-10-05T23:48:35.469Z,12.30
2018-10-05T23:51:03.845Z,12.30
2018-10-05T23:53:32.121Z,12.00
2018-10-05T23:56:00.408Z,11.60
2018-10-05T23:58:28.679Z,11.70
